Time;durP1;ratioP1;P1;durP2;ratioP2;P2;SDS_P1;SDS_P2;PMS_P1;PMS_P2;Temp;Humidity;BMP_temperature;BMP_pressure;BME280_temperature;BME280_humidity;BME280_pressure;Samples;Min_cycle;Max_cycle;Signal;HPM_P1;HPM_P2
2023/10/25 00:01:05;;;;;;;1.05;0.50;;;;;;;19.12;49.06;100101.84;16114374;19;130950;-42
2023/10/25 00:06:27;;;;;;;2.78;0.60;;;;;;;19.10;48.94;100098.50;16114054;19;130243;-42
2023/10/25 00:11:50;;;;;;;4.35;0.65;;;;;;;19.07;48.81;100078.56;16111095;19;130249;-41
2023/10/25 00:17:12;;;;;;;2.25;0.70;;;;;;;19.05;48.83;100079.91;16112641;19;131434;-41
2023/10/25 00:22:34;;;;;;;1.27;0.63;;;;;;;19.03;49.13;100082.97;16110210;19;130119;-42
2023/10/25 00:27:56;;;;;;;3.97;0.70;;;;;;;19.01;48.69;100068.53;16113710;19;133739;-41
2023/10/25 00:33:18;;;;;;;2.50;0.70;;;;;;;18.99;49.19;100083.78;16112587;19;129507;-44
2023/10/25 00:38:39;;;;;;;1.70;0.50;;;;;;;18.97;49.11;100078.50;16114861;19;130227;-42
2023/10/25 00:44:01;;;;;;;1.30;0.52;;;;;;;18.94;48.76;100079.06;16108455;19;130917;-43
2023/10/25 00:49:24;;;;;;;1.90;0.70;;;;;;;18.93;48.88;100077.38;16113725;19;130517;-40
2023/10/25 00:54:46;;;;;;;2.17;0.68;;;;;;;18.91;49.15;100068.50;16111205;19;131299;-40
2023/10/25 01:00:09;;;;;;;1.98;0.52;;;;;;;18.89;48.97;100049.34;16110638;19;130708;-42
2023/10/25 01:05:31;;;;;;;3.28;0.65;;;;;;;18.87;48.99;100034.09;16112697;19;134038;-43
2023/10/25 01:10:53;;;;;;;2.45;0.77;;;;;;;18.87;48.92;100036.88;16109470;19;129679;-43
2023/10/25 01:16:15;;;;;;;1.13;0.55;;;;;;;18.86;48.99;100024.13;16109808;19;129535;-40
2023/10/25 01:21:37;;;;;;;1.20;0.52;;;;;;;18.84;49.04;100021.63;16109903;19;130958;-43
2023/10/25 01:26:59;;;;;;;2.22;0.55;;;;;;;18.83;48.93;100021.91;16109086;19;129686;-42
2023/10/25 01:32:22;;;;;;;2.25;0.75;;;;;;;18.81;48.98;100013.03;16106510;19;131058;-41
2023/10/25 01:37:44;;;;;;;0.55;0.40;;;;;;;18.79;48.76;100016.06;16106617;19;130135;-42
2023/10/25 01:43:06;;;;;;;1.83;0.63;;;;;;;18.78;49.10;100008.84;16105251;19;129891;-41
2023/10/25 01:48:28;;;;;;;1.15;0.52;;;;;;;18.75;49.20;99995.53;16111747;19;129629;-40
2023/10/25 01:53:50;;;;;;;3.10;0.50;;;;;;;18.75;49.07;99999.13;16100137;19;129887;-42
2023/10/25 01:59:12;;;;;;;1.55;0.43;;;;;;;18.74;49.21;99985.56;16103070;19;130986;-40
2023/10/25 02:04:34;;;;;;;1.08;0.50;;;;;;;18.72;49.25;99977.50;16123706;19;131225;-41
2023/10/25 02:09:56;;;;;;;1.20;0.40;;;;;;;18.71;49.13;99964.75;16120773;19;133524;-40
2023/10/25 02:15:17;;;;;;;1.17;0.50;;;;;;;18.70;49.17;99951.19;16119563;19;130091;-40
2023/10/25 02:20:39;;;;;;;1.27;0.43;;;;;;;18.68;48.95;99942.31;16120383;19;129934;-41
2023/10/25 02:26:01;;;;;;;2.63;0.30;;;;;;;18.68;48.94;99937.59;16120629;19;130791;-43
2023/10/25 02:31:24;;;;;;;0.70;0.30;;;;;;;18.66;49.28;99931.50;16119961;19;129090;-41
2023/10/25 02:36:46;;;;;;;1.05;0.55;;;;;;;18.66;48.95;99919.56;16120968;19;130803;-41
2023/10/25 02:42:08;;;;;;;0.77;0.50;;;;;;;18.65;48.88;99906.81;16117118;19;129613;-40
2023/10/25 02:47:30;;;;;;;1.50;0.45;;;;;;;18.62;48.83;99905.44;16122083;19;130417;-41
2023/10/25 02:52:52;;;;;;;1.23;0.40;;;;;;;18.63;48.84;99895.19;16114903;19;130505;-41
2023/10/25 02:58:15;;;;;;;1.42;0.30;;;;;;;18.61;49.04;99888.00;16117951;19;129498;-42
2023/10/25 03:03:38;;;;;;;0.73;0.40;;;;;;;18.60;48.82;99885.47;16121253;19;130225;-41
2023/10/25 03:09:00;;;;;;;0.50;0.50;;;;;;;18.59;48.90;99886.56;16120814;19;130234;-42
2023/10/25 03:14:22;;;;;;;1.27;0.30;;;;;;;18.58;48.83;99882.16;16115472;19;130922;-41
2023/10/25 03:19:44;;;;;;;0.40;0.30;;;;;;;18.56;48.96;99874.13;16118543;19;129755;-41
2023/10/25 03:25:06;;;;;;;0.70;0.40;;;;;;;18.56;49.17;99874.13;16116362;19;129579;-40
2023/10/25 03:30:28;;;;;;;1.02;0.50;;;;;;;18.55;48.82;99861.38;16118057;19;129655;-42
2023/10/25 03:35:52;;;;;;;0.30;0.30;;;;;;;18.54;49.09;99856.94;16117430;19;129844;-40
2023/10/25 03:41:14;;;;;;;1.23;0.37;;;;;;;18.53;48.86;99851.66;16115397;19;131057;-41
2023/10/25 03:46:37;;;;;;;0.80;0.50;;;;;;;18.52;48.89;99844.47;16115410;19;129751;-41
2023/10/25 03:51:59;;;;;;;0.68;0.30;;;;;;;18.51;49.30;99848.34;16115246;19;129723;-40
2023/10/25 03:57:22;;;;;;;0.82;0.30;;;;;;;18.50;49.31;99833.66;16116281;19;131399;-40
2023/10/25 04:02:43;;;;;;;0.50;0.30;;;;;;;18.49;48.89;99832.00;16110361;19;129610;-42
2023/10/25 04:08:05;;;;;;;0.32;0.30;;;;;;;18.50;48.87;99835.59;16114312;19;131405;-39
2023/10/25 04:13:27;;;;;;;1.65;0.40;;;;;;;18.49;49.10;99820.06;16114468;19;130310;-40
2023/10/25 04:18:50;;;;;;;0.35;0.22;;;;;;;18.47;49.25;99820.38;16114985;19;129548;-40
2023/10/25 04:24:12;;;;;;;1.50;0.30;;;;;;;18.46;49.04;99805.66;16112856;19;129758;-41
2023/10/25 04:29:34;;;;;;;0.70;0.30;;;;;;;18.45;48.98;99790.19;16115098;19;129785;-40
2023/10/25 04:34:56;;;;;;;1.48;0.30;;;;;;;18.44;49.11;99777.44;16109975;19;130819;-41
2023/10/25 04:40:18;;;;;;;0.90;0.20;;;;;;;18.43;48.99;99777.69;16111874;19;129264;-40
2023/10/25 04:45:40;;;;;;;0.65;0.40;;;;;;;18.43;49.01;99763.84;16108304;19;129619;-41
2023/10/25 04:51:03;;;;;;;0.40;0.30;;;;;;;18.41;49.06;99758.59;16109092;19;129941;-40
2023/10/25 04:56:25;;;;;;;0.88;0.35;;;;;;;18.41;48.79;99752.19;16111207;19;130735;-40
2023/10/25 05:01:47;;;;;;;0.40;0.30;;;;;;;18.39;48.67;99744.19;16110339;19;130885;-40
2023/10/25 05:07:09;;;;;;;0.50;0.30;;;;;;;18.39;48.83;99729.50;16104260;19;129548;-40
2023/10/25 05:12:52;;;;;;;1.08;0.40;;;;;;;18.39;48.82;99719.25;16111026;19;130046;-41
2023/10/25 05:18:14;;;;;;;0.70;0.40;;;;;;;18.36;49.05;99708.69;16106910;19;129585;-41
2023/10/25 05:23:36;;;;;;;2.40;0.40;;;;;;;18.34;48.35;99705.38;16110651;19;131482;-40
2023/10/25 05:28:58;;;;;;;3.70;0.50;;;;;;;18.38;48.44;99695.41;16110237;19;130460;-41
2023/10/25 05:34:21;;;;;;;3.15;0.60;;;;;;;18.42;48.32;99691.03;16107707;19;130513;-41
2023/10/25 05:39:44;;;;;;;6.25;0.88;;;;;;;18.45;48.31;99682.19;16120511;19;129838;-40
2023/10/25 05:45:07;;;;;;;2.80;0.50;;;;;;;18.45;48.24;99701.56;16125645;19;129771;-40
2023/10/25 05:50:29;;;;;;;2.15;0.40;;;;;;;18.44;48.00;99697.13;16124368;19;129342;-39
2023/10/25 05:55:51;;;;;;;1.70;0.40;;;;;;;18.44;48.28;99693.50;16120937;19;133563;-40
2023/10/25 06:01:14;;;;;;;3.72;0.73;;;;;;;18.43;48.28;99689.94;16123412;19;129856;-42
2023/10/25 06:06:38;;;;;;;2.38;0.63;;;;;;;18.41;48.17;99683.81;16122859;19;130694;-39
2023/10/25 06:12:00;;;;;;;2.97;0.50;;;;;;;18.41;48.27;99689.38;16124212;19;129438;-40
2023/10/25 06:17:25;;;;;;;3.88;0.60;;;;;;;18.39;48.02;99679.66;16122642;19;130744;-40
2023/10/25 06:22:47;;;;;;;1.77;0.40;;;;;;;18.38;48.44;99675.22;16124072;19;131510;-40
2023/10/25 06:28:09;;;;;;;3.72;0.60;;;;;;;18.38;48.14;99662.19;16126565;19;129514;-40
2023/10/25 06:33:31;;;;;;;1.52;0.40;;;;;;;18.37;48.39;99654.16;16120747;19;133817;-39
2023/10/25 06:38:53;;;;;;;3.63;0.40;;;;;;;18.34;48.23;99638.09;16120809;19;134241;-42
2023/10/25 06:44:15;;;;;;;3.72;0.65;;;;;;;18.34;48.01;99627.84;16121281;19;130065;-41
2023/10/25 06:49:37;;;;;;;1.85;0.40;;;;;;;18.33;48.41;99609.59;16116971;19;131098;-40
2023/10/25 06:54:59;;;;;;;2.17;0.60;;;;;;;18.31;48.49;99593.25;16119232;19;130048;-40
2023/10/25 07:00:22;;;;;;;3.08;0.65;;;;;;;18.30;48.52;99586.03;16120671;19;129155;-40
2023/10/25 07:05:45;;;;;;;1.80;0.40;;;;;;;18.30;48.29;99560.31;16112863;19;130259;-39
2023/10/25 07:11:07;;;;;;;1.58;0.55;;;;;;;18.28;48.10;99565.28;16115071;19;130260;-40
2023/10/25 07:16:29;;;;;;;1.23;0.30;;;;;;;18.28;48.22;99545.91;16120115;19;129626;-40
2023/10/25 07:21:51;;;;;;;3.92;0.43;;;;;;;18.27;48.48;99531.25;16121803;19;133749;-41
2023/10/25 07:27:13;;;;;;;5.43;0.75;;;;;;;18.25;48.03;99513.22;16116719;19;130538;-41
2023/10/25 07:32:35;;;;;;;2.90;0.57;;;;;;;18.24;48.27;99503.25;16118332;19;131293;-41
2023/10/25 07:37:58;;;;;;;3.28;0.50;;;;;;;18.23;48.29;99490.53;16118531;19;129610;-40
2023/10/25 07:43:21;;;;;;;2.80;0.65;;;;;;;18.21;47.94;99490.00;16113122;19;131042;-39
2023/10/25 07:48:44;;;;;;;1.60;0.47;;;;;;;18.18;48.16;99469.22;16116598;19;129176;-39
2023/10/25 07:54:06;;;;;;;3.15;0.55;;;;;;;18.23;48.00;99455.38;16115386;19;131045;-42
2023/10/25 07:59:28;;;;;;;4.75;0.70;;;;;;;18.34;47.43;99444.28;16116081;19;129696;-43
2023/10/25 08:04:50;;;;;;;3.08;0.60;;;;;;;18.41;47.61;99451.22;16115948;19;129723;-39
2023/10/25 08:10:12;;;;;;;1.42;0.50;;;;;;;18.52;47.45;99440.97;16112418;19;129683;-40
2023/10/25 08:15:36;;;;;;;5.43;0.80;;;;;;;18.58;46.72;99422.38;16113364;19;129878;-40
2023/10/25 08:20:59;;;;;;;3.22;0.57;;;;;;;18.65;46.58;99410.97;16113683;19;129599;-39
2023/10/25 08:26:25;;;;;;;5.75;1.00;;;;;;;18.67;46.94;99417.06;16112862;19;130350;-40
2023/10/25 08:31:47;;;;;;;;;;;;;;;18.63;46.64;99414.03;16113294;19;130164;-42
2023/10/25 08:37:11;;;;;;;2.45;0.73;;;;;;;18.63;46.56;99411.28;16114672;19;129713;-39
2023/10/25 08:42:33;;;;;;;2.22;0.77;;;;;;;18.60;46.59;99400.75;16115630;19;130438;-40
2023/10/25 08:47:55;;;;;;;1.40;0.70;;;;;;;18.57;46.72;99393.84;16112322;19;129626;-41
2023/10/25 08:53:25;;;;;;;3.78;0.75;;;;;;;18.55;46.65;99384.16;16109849;19;130294;-39
2023/10/25 08:58:47;;;;;;;5.28;0.80;;;;;;;18.51;47.03;99366.47;16111142;19;130391;-40
2023/10/25 09:04:09;;;;;;;3.83;0.65;;;;;;;18.50;46.81;99359.25;16110456;19;131626;-40
2023/10/25 09:09:40;;;;;;;6.72;0.70;;;;;;;18.49;46.71;99341.81;16109954;19;130660;-40
2023/10/25 09:15:03;;;;;;;1.17;0.75;;;;;;;18.44;47.06;99339.06;16109947;19;131479;-42
2023/10/25 09:20:27;;;;;;;3.97;0.60;;;;;;;18.39;47.27;99331.63;16110236;19;131188;-40
2023/10/25 09:25:49;;;;;;;4.50;0.75;;;;;;;18.38;47.38;99316.09;16110086;19;130506;-40
2023/10/25 09:31:28;;;;;;;6.10;0.88;;;;;;;18.37;47.00;99308.88;16106715;19;129997;-40
2023/10/25 09:36:50;;;;;;;3.53;0.77;;;;;;;18.33;46.98;99293.13;16105125;19;130571;-39
2023/10/25 09:42:13;;;;;;;2.25;0.57;;;;;;;18.31;47.36;99279.59;16106807;19;131442;-39
2023/10/25 09:47:40;;;;;;;2.40;0.77;;;;;;;18.29;47.41;99270.72;16106176;19;129363;-42
2023/10/25 09:53:20;;;;;;;2.10;0.70;;;;;;;18.29;47.19;99268.78;16101326;19;131180;-40
2023/10/25 09:58:44;;;;;;;1.20;0.50;;;;;;;18.25;47.41;99258.56;16103704;19;130787;-39
2023/10/25 10:04:32;;;;;;;2.25;0.75;;;;;;;18.25;47.25;99253.03;16104879;19;129632;-40
2023/10/25 10:10:18;;;;;;;2.20;0.60;;;;;;;18.25;46.91;99253.03;16111444;19;129793;-38
2023/10/25 10:16:00;;;;;;;1.87;0.60;;;;;;;18.22;47.05;99221.22;16107199;19;130722;-39
2023/10/25 10:21:22;;;;;;;2.03;0.70;;;;;;;18.20;47.45;99214.31;16106102;19;130752;-39
2023/10/25 10:26:44;;;;;;;2.95;0.77;;;;;;;18.20;47.14;99206.00;16122026;19;129895;-39
2023/10/25 10:32:07;;;;;;;3.30;0.60;;;;;;;18.19;47.12;99201.59;16120810;19;130011;-39
2023/10/25 10:37:29;;;;;;;2.05;0.80;;;;;;;18.18;47.31;99186.09;16122772;19;129486;-39
2023/10/25 10:42:52;;;;;;;1.80;0.70;;;;;;;18.17;47.28;99176.94;16121712;19;130401;-39
2023/10/25 10:48:36;;;;;;;2.78;0.70;;;;;;;18.18;47.24;99163.94;16116285;19;129417;-40
2023/10/25 10:53:58;;;;;;;1.38;0.70;;;;;;;18.16;47.36;99164.22;16121009;19;131067;-39
2023/10/25 10:59:20;;;;;;;2.10;0.77;;;;;;;18.18;47.33;99152.88;16121114;19;129949;-38
2023/10/25 11:04:42;;;;;;;2.60;0.95;;;;;;;18.28;46.77;99141.75;16116223;19;129425;-39
2023/10/25 11:10:05;;;;;;;5.28;0.68;;;;;;;18.46;46.53;99127.22;16118831;19;129629;-38
2023/10/25 11:15:29;;;;;;;6.78;0.52;;;;;;;18.68;46.69;99128.72;16118980;19;130363;-39
2023/10/25 11:20:51;;;;;;;9.60;1.23;;;;;;;18.82;47.11;99128.06;16120033;19;133894;-39
2023/10/25 11:26:13;;;;;;;4.55;0.90;;;;;;;18.86;47.32;99118.03;16123051;19;129632;-39
2023/10/25 11:31:34;;;;;;;8.95;0.77;;;;;;;18.89;46.99;99117.44;16119489;19;131771;-39
2023/10/25 11:36:56;;;;;;;6.13;1.05;;;;;;;18.88;47.02;99097.22;16115643;19;130031;-39
2023/10/25 11:42:19;;;;;;;6.07;1.20;;;;;;;18.86;47.22;99091.16;16119974;19;130121;-38
2023/10/25 11:47:41;;;;;;;4.35;0.90;;;;;;;18.85;47.47;99083.97;16116446;19;131471;-39
2023/10/25 11:53:03;;;;;;;7.57;0.85;;;;;;;18.83;47.39;99077.88;16117657;19;129724;-39
2023/10/25 11:58:28;;;;;;;79.88;5.88;;;;;;;18.81;47.40;99071.81;16116076;19;129977;-39
2023/10/25 12:03:50;;;;;;;36.80;3.45;;;;;;;18.77;47.95;99068.78;16118932;19;130275;-40
2023/10/25 12:09:13;;;;;;;26.63;2.83;;;;;;;18.76;48.37;99058.84;16118086;19;129569;-38
2023/10/25 12:14:34;;;;;;;29.05;3.00;;;;;;;18.74;48.28;99055.53;16112863;19;132175;-38
2023/10/25 12:19:56;;;;;;;17.30;2.67;;;;;;;18.74;48.89;99049.97;16111254;19;130107;-39
2023/10/25 12:25:37;;;;;;;17.33;1.67;;;;;;;18.73;48.58;99042.78;16108179;19;129573;-39
2023/10/25 12:30:59;;;;;;;8.37;1.60;;;;;;;18.72;49.06;99046.69;16109208;19;129586;-39
2023/10/25 12:36:21;;;;;;;19.38;2.10;;;;;;;18.73;49.28;99047.50;16111247;19;130865;-39
2023/10/25 12:41:44;;;;;;;16.13;1.92;;;;;;;18.73;49.23;99042.78;16107409;19;130777;-40
2023/10/25 12:47:06;;;;;;;20.02;1.90;;;;;;;18.74;49.48;99036.13;16110581;19;129419;-39
2023/10/25 12:52:28;;;;;;;15.77;1.65;;;;;;;18.75;49.60;99029.47;16113516;19;129437;-41
2023/10/25 12:57:50;;;;;;;8.00;1.42;;;;;;;18.74;49.63;99030.59;16112001;19;129565;-39
2023/10/25 13:03:12;;;;;;;15.45;1.85;;;;;;;18.76;50.06;99025.59;16111695;19;129817;-39
2023/10/25 13:08:34;;;;;;;5.80;1.10;;;;;;;18.81;49.82;99018.34;16111635;19;129874;-39
2023/10/25 13:13:56;;;;;;;6.90;1.17;;;;;;;18.93;49.84;99018.78;16112169;19;130579;-38
2023/10/25 13:19:18;;;;;;;10.80;1.20;;;;;;;19.08;49.84;99010.25;16106590;19;131595;-40
2023/10/25 13:24:40;;;;;;;6.43;1.13;;;;;;;19.21;49.74;99007.91;16111593;19;129654;-40
2023/10/25 13:30:04;;;;;;;3.75;0.95;;;;;;;19.30;49.64;99006.16;16108943;19;129557;-39
2023/10/25 13:35:26;;;;;;;7.38;1.40;;;;;;;19.32;49.32;98998.31;16107930;19;131102;-39
2023/10/25 13:40:48;;;;;;;6.68;1.10;;;;;;;19.32;49.38;99000.28;16106235;19;129911;-40
2023/10/25 13:46:10;;;;;;;3.97;1.00;;;;;;;19.31;49.45;99005.03;16103921;19;129726;-39
2023/10/25 13:51:32;;;;;;;7.75;1.10;;;;;;;19.29;49.78;99004.50;16101462;19;132080;-39
2023/10/25 13:56:54;;;;;;;8.85;1.13;;;;;;;19.28;49.73;99007.53;16112259;19;130798;-38
2023/10/25 14:02:16;;;;;;;1.95;0.70;;;;;;;19.24;50.02;99010.09;16119544;19;131078;-39
2023/10/25 14:07:38;;;;;;;2.53;0.60;;;;;;;19.20;50.13;99015.38;16119612;19;131361;-39
2023/10/25 14:13:00;;;;;;;6.93;1.13;;;;;;;19.19;50.29;99015.69;16124135;19;130141;-39
2023/10/25 14:18:33;;;;;;;4.53;0.77;;;;;;;19.17;50.23;99012.38;16123856;19;130558;-39
2023/10/25 14:23:56;;;;;;;1.67;0.60;;;;;;;19.15;50.37;99009.06;16122206;19;129778;-39
2023/10/25 14:29:18;;;;;;;3.83;0.70;;;;;;;19.12;50.67;99010.50;16124080;19;130070;-39
2023/10/25 14:34:40;;;;;;;2.28;0.73;;;;;;;19.12;50.75;99009.66;16119317;19;131643;-39
2023/10/25 14:40:04;;;;;;;3.95;0.73;;;;;;;19.11;50.96;99014.41;16117460;19;131459;-39
2023/10/25 14:45:26;;;;;;;7.43;0.85;;;;;;;19.09;50.80;99013.84;16120759;19;129722;-38
2023/10/25 14:50:48;;;;;;;2.42;0.60;;;;;;;19.08;50.89;99026.88;16115489;19;131096;-39
2023/10/25 14:56:11;;;;;;;2.28;0.70;;;;;;;19.06;50.84;99029.16;16119069;19;129354;-42
2023/10/25 15:01:35;;;;;;;5.43;0.60;;;;;;;19.09;51.34;99044.34;16120338;19;129900;-39
2023/10/25 15:06:57;;;;;;;2.55;0.60;;;;;;;19.18;51.25;99038.97;16118505;19;129244;-39
2023/10/25 15:12:19;;;;;;;1.30;0.68;;;;;;;19.32;51.06;99033.56;16116207;19;130518;-39
2023/10/25 15:17:45;;;;;;;3.90;0.70;;;;;;;19.45;50.40;99035.59;16114716;19;129562;-39
2023/10/25 15:23:07;;;;;;;1.42;0.40;;;;;;;19.57;50.07;99037.91;16114937;19;130967;-39
2023/10/25 15:28:29;;;;;;;1.42;0.40;;;;;;;19.68;50.33;99049.72;16115577;19;129612;-39
2023/10/25 15:33:52;;;;;;;5.35;0.70;;;;;;;19.78;50.30;99054.28;16111644;19;130378;-39
2023/10/25 15:39:14;;;;;;;3.03;0.50;;;;;;;19.85;50.06;99054.72;16113009;19;129334;-39
2023/10/25 15:44:36;;;;;;;2.20;0.47;;;;;;;19.91;50.19;99053.53;16112134;19;134189;-39
2023/10/25 15:49:58;;;;;;;1.45;0.32;;;;;;;19.98;50.15;99058.72;16106379;19;131411;-39
2023/10/25 15:55:20;;;;;;;2.58;0.40;;;;;;;20.02;50.03;99064.53;16110232;19;131617;-39
2023/10/25 16:00:41;;;;;;;4.38;0.88;;;;;;;20.01;50.03;99072.00;16113142;19;129718;-38
2023/10/25 16:06:05;;;;;;;1.98;0.90;;;;;;;20.03;49.77;99071.72;16111323;19;130731;-39
2023/10/25 16:11:27;;;;;;;2.75;1.17;;;;;;;20.03;49.08;99082.81;16113763;19;129662;-39
2023/10/25 16:16:49;;;;;;;3.95;0.85;;;;;;;20.02;49.29;99092.28;16111193;19;129747;-39
2023/10/25 16:22:17;;;;;;;4.07;1.17;;;;;;;20.01;48.76;99096.97;16109216;19;130981;-39
2023/10/25 16:27:42;;;;;;;3.65;1.38;;;;;;;20.06;48.45;99104.44;16113446;19;130310;-39
2023/10/25 16:33:05;;;;;;;2.17;1.07;;;;;;;20.17;48.65;99105.94;16114337;19;130288;-39
2023/10/25 16:38:27;;;;;;;2.35;1.40;;;;;;;20.31;48.20;99110.72;16109963;19;129733;-39
2023/10/25 16:43:50;;;;;;;1.90;0.93;;;;;;;20.40;48.12;99120.00;16111405;19;128826;-39
2023/10/25 16:49:13;;;;;;;1.75;0.90;;;;;;;20.37;47.99;99120.59;16107419;19;130417;-38
2023/10/25 16:54:35;;;;;;;4.00;1.33;;;;;;;20.35;48.35;99131.19;16107922;19;130433;-39
2023/10/25 16:59:57;;;;;;;6.38;1.45;;;;;;;20.27;48.56;99139.09;16107463;19;130581;-40
2023/10/25 17:05:19;;;;;;;4.68;1.50;;;;;;;20.25;49.03;99152.44;16109102;19;131561;-39
2023/10/25 17:10:41;;;;;;;4.43;1.75;;;;;;;20.26;48.78;99153.25;16109296;19;129892;-39
2023/10/25 17:16:03;;;;;;;3.55;1.30;;;;;;;20.27;48.95;99172.41;16103637;19;130434;-39
2023/10/25 17:21:27;;;;;;;10.43;1.67;;;;;;;20.32;49.38;99173.44;16105655;19;129513;-39
2023/10/25 17:26:49;;;;;;;7.47;1.27;;;;;;;20.37;49.84;99184.47;16108866;19;131972;-39
2023/10/25 17:32:12;;;;;;;7.72;1.60;;;;;;;20.41;50.01;99191.91;16117052;19;131107;-38
2023/10/25 17:37:34;;;;;;;7.55;1.30;;;;;;;20.45;50.12;99197.69;16124299;19;129453;-39
2023/10/25 17:42:58;;;;;;;5.05;1.13;;;;;;;20.48;49.74;99202.66;16124733;19;131102;-39
2023/10/25 17:48:22;;;;;;;6.50;1.30;;;;;;;20.46;49.90;99213.22;16121810;19;129800;-39
2023/10/25 17:53:44;;;;;;;3.13;1.20;;;;;;;20.46;50.05;99210.44;16124384;19;131359;-38
2023/10/25 17:59:06;;;;;;;9.23;1.30;;;;;;;20.44;50.06;99223.81;16125506;19;131624;-39
2023/10/25 18:04:30;;;;;;;4.35;1.15;;;;;;;20.38;49.81;99234.16;16122661;19;130431;-40
2023/10/25 18:09:52;;;;;;;3.67;1.20;;;;;;;20.32;50.01;99238.16;16126300;19;129722;-39
2023/10/25 18:15:15;;;;;;;3.80;1.08;;;;;;;20.25;50.28;99246.84;16119994;19;129582;-39
2023/10/25 18:20:37;;;;;;;4.85;1.23;;;;;;;20.18;49.98;99254.75;16118685;19;129886;-39
2023/10/25 18:25:59;;;;;;;7.80;1.10;;;;;;;20.11;50.17;99262.59;16119651;19;131096;-39
2023/10/25 18:31:22;;;;;;;4.13;1.23;;;;;;;20.04;50.19;99262.13;16119735;19;130170;-38
2023/10/25 18:37:03;;;;;;;4.13;0.90;;;;;;;19.98;50.27;99286.31;16119439;19;130089;-39
2023/10/25 18:42:27;;;;;;;6.10;1.10;;;;;;;19.94;50.54;99282.47;16117699;19;130243;-39
2023/10/25 18:47:49;;;;;;;6.85;1.10;;;;;;;19.93;50.40;99281.66;16117088;19;130901;-39
2023/10/25 18:53:11;;;;;;;14.65;1.58;;;;;;;20.01;50.44;99296.03;16114193;19;134762;-40
2023/10/25 18:58:33;;;;;;;18.60;1.67;;;;;;;20.21;50.25;99301.31;16119277;19;130539;-39
2023/10/25 19:03:56;;;;;;;15.60;1.73;;;;;;;20.46;49.80;99310.44;16115313;19;131707;-39
2023/10/25 19:09:18;;;;;;;16.00;1.40;;;;;;;20.66;49.80;99309.34;16116087;19;131423;-39
2023/10/25 19:14:41;;;;;;;13.65;1.50;;;;;;;20.79;49.46;99315.31;16120097;19;129304;-41
2023/10/25 19:20:03;;;;;;;12.60;1.60;;;;;;;20.85;49.48;99325.25;16113169;19;130324;-40
2023/10/25 19:25:28;;;;;;;13.15;1.23;;;;;;;20.87;49.36;99339.63;16117839;19;130076;-40
2023/10/25 19:30:50;;;;;;;10.32;1.33;;;;;;;20.87;49.18;99346.03;16118783;19;129612;-39
2023/10/25 19:36:13;;;;;;;7.53;1.25;;;;;;;20.88;49.33;99352.41;16117579;19;129483;-40
2023/10/25 19:41:36;;;;;;;7.90;0.98;;;;;;;20.86;49.51;99366.63;16117000;19;131142;-39
2023/10/25 19:46:57;;;;;;;7.45;1.35;;;;;;;20.85;49.16;99373.31;16115501;19;131297;-39
2023/10/25 19:52:19;;;;;;;6.72;0.95;;;;;;;20.84;49.45;99385.56;16112328;19;129451;-41
2023/10/25 19:57:42;;;;;;;7.50;1.10;;;;;;;20.84;49.36;99391.09;16112191;19;130501;-39
2023/10/25 20:03:04;;;;;;;7.20;1.00;;;;;;;20.84;49.50;99390.28;16113776;19;129291;-39
2023/10/25 20:08:26;;;;;;;3.85;1.08;;;;;;;20.84;49.75;99390.28;16115539;19;131094;-39
2023/10/25 20:13:48;;;;;;;4.78;1.17;;;;;;;20.81;49.47;99394.47;16107325;19;131685;-39
2023/10/25 20:19:10;;;;;;;3.10;1.20;;;;;;;20.77;50.01;99407.34;16113387;19;129761;-39
2023/10/25 20:24:33;;;;;;;10.50;1.35;;;;;;;20.72;49.72;99426.81;16112932;19;130830;-39
2023/10/25 20:29:55;;;;;;;17.80;1.50;;;;;;;20.65;50.21;99418.84;16113183;19;131399;-39
2023/10/25 20:35:18;;;;;;;10.23;1.30;;;;;;;20.56;50.33;99424.22;16107600;19;130075;-39
2023/10/25 20:40:39;;;;;;;10.20;1.25;;;;;;;20.50;50.54;99439.31;16110828;19;129322;-39
2023/10/25 20:46:01;;;;;;;11.23;0.90;;;;;;;20.44;50.49;99454.34;16111549;19;131601;-39
2023/10/25 20:51:24;;;;;;;6.70;1.13;;;;;;;20.36;50.91;99469.75;16110257;19;130472;-39
2023/10/25 20:56:46;;;;;;;8.77;1.08;;;;;;;20.31;50.73;99478.13;16111625;19;131318;-39
2023/10/25 21:02:08;;;;;;;7.50;1.23;;;;;;;20.23;51.02;99482.34;16111653;19;129547;-39
2023/10/25 21:07:30;;;;;;;8.20;1.25;;;;;;;20.19;51.13;99491.56;16108133;19;129752;-39
2023/10/25 21:12:52;;;;;;;7.40;1.10;;;;;;;20.14;51.10;99486.88;16112535;19;130909;-39
2023/10/25 21:18:14;;;;;;;20.15;1.73;;;;;;;20.10;50.73;99492.19;16109241;19;131396;-39
2023/10/25 21:23:40;;;;;;;11.15;1.40;;;;;;;20.03;50.76;99488.09;16111231;19;133162;-39
2023/10/25 21:29:02;;;;;;;11.38;1.23;;;;;;;19.97;50.72;99501.97;16105576;19;129510;-39
2023/10/25 21:34:24;;;;;;;9.73;1.23;;;;;;;19.90;51.25;99506.19;16108702;19;130856;-39
2023/10/25 21:39:47;;;;;;;4.63;1.23;;;;;;;19.83;51.16;99504.59;16107821;19;130725;-39
2023/10/25 21:45:10;;;;;;;5.47;1.00;;;;;;;19.79;51.05;99511.03;16109682;19;129913;-39
2023/10/25 21:50:32;;;;;;;4.20;1.00;;;;;;;19.74;51.01;99513.81;16106444;19;130149;-39
2023/10/25 21:55:55;;;;;;;4.72;0.90;;;;;;;19.67;51.08;99515.00;16109082;19;130800;-43
2023/10/25 22:01:43;;;;;;;4.60;1.05;;;;;;;19.64;50.97;99526.66;16108671;19;130147;-40
2023/10/25 22:07:05;;;;;;;4.28;1.02;;;;;;;19.58;51.19;99538.88;16103479;19;130249;-40
2023/10/25 22:12:28;;;;;;;4.10;1.10;;;;;;;19.56;50.95;99541.13;16104334;19;131103;-41
2023/10/25 22:17:50;;;;;;;4.07;0.85;;;;;;;19.53;51.41;99544.47;16101474;19;130127;-39
2023/10/25 22:23:12;;;;;;;4.32;1.05;;;;;;;19.52;51.02;99540.03;16120515;19;130382;-38
2023/10/25 22:28:34;;;;;;;3.50;0.82;;;;;;;19.48;50.96;99534.25;16119689;19;130985;-39
2023/10/25 22:33:56;;;;;;;4.25;0.80;;;;;;;19.45;51.40;99536.72;16121144;19;134156;-39
2023/10/25 22:39:18;;;;;;;2.65;0.93;;;;;;;19.43;51.27;99539.00;16118085;19;131774;-39
2023/10/25 22:44:40;;;;;;;4.53;0.82;;;;;;;19.40;51.52;99539.56;16119296;19;130776;-39
2023/10/25 22:50:03;;;;;;;3.35;0.60;;;;;;;19.38;51.16;99548.97;16116215;19;129709;-38
2023/10/25 22:55:25;;;;;;;3.83;0.57;;;;;;;19.36;51.23;99562.31;16118504;19;130607;-39
2023/10/25 23:00:47;;;;;;;2.20;0.80;;;;;;;19.34;51.50;99567.28;16120006;19;130094;-38
2023/10/25 23:06:09;;;;;;;5.38;0.82;;;;;;;19.31;51.15;99567.88;16117260;19;130031;-39
2023/10/25 23:11:31;;;;;;;2.20;0.73;;;;;;;19.30;51.63;99582.88;16122357;19;132852;-39
2023/10/25 23:16:53;;;;;;;3.80;0.80;;;;;;;19.27;51.57;99588.13;16116107;19;131115;-39
2023/10/25 23:22:19;;;;;;;2.63;0.70;;;;;;;19.25;51.54;99593.97;16117687;19;129464;-39
2023/10/25 23:27:41;;;;;;;2.53;0.70;;;;;;;19.23;51.47;99598.97;16119735;19;131730;-39
2023/10/25 23:33:03;;;;;;;3.55;0.90;;;;;;;19.21;51.21;99607.56;16115013;19;129354;-39
2023/10/25 23:38:25;;;;;;;4.47;1.00;;;;;;;19.19;51.48;99615.31;16111165;19;131075;-39
2023/10/25 23:43:47;;;;;;;3.80;0.93;;;;;;;19.17;51.42;99616.69;16117868;19;130244;-38
2023/10/25 23:49:09;;;;;;;1.30;0.75;;;;;;;19.16;51.20;99615.03;16113357;19;131512;-39
2023/10/25 23:54:31;;;;;;;2.45;0.50;;;;;;;19.13;51.16;99618.38;16115812;19;133515;-39
